sensor_id;sensor_type;location;lat;lon;timestamp;temperature;humidity
20759;DHT22;10539;53.686;9.158;2022-07-29T00:02:24;15.10;99.90
20759;DHT22;10539;53.686;9.158;2022-07-29T00:04:50;15.10;99.90
20759;DHT22;10539;53.686;9.158;2022-07-29T00:07:16;15.10;99.90
20759;DHT22;10539;53.686;9.158;2022-07-29T00:09:41;15.10;99.90
20759;DHT22;10539;53.686;9.158;2022-07-29T00:12:07;15.00;99.90
20759;DHT22;10539;53.686;9.158;2022-07-29T00:14:33;15.00;99.90
20759;DHT22;10539;53.686;9.158;2022-07-29T00:16:59;15.00;99.90
20759;DHT22;10539;53.686;9.158;2022-07-29T00:19:24;14.90;99.90
20759;DHT22;10539;53.686;9.158;2022-07-29T00:21:50;14.90;99.90
20759;DHT22;10539;53.686;9.158;2022-07-29T00:24:15;14.90;99.90
20759;DHT22;10539;53.686;9.158;2022-07-29T00:26:41;14.80;99.90
20759;DHT22;10539;53.686;9.158;2022-07-29T00:29:07;14.80;99.90
20759;DHT22;10539;53.686;9.158;2022-07-29T00:31:32;14.90;99.90
20759;DHT22;10539;53.686;9.158;2022-07-29T00:33:58;14.90;99.90
20759;DHT22;10539;53.686;9.158;2022-07-29T00:36:24;14.80;99.90
20759;DHT22;10539;53.686;9.158;2022-07-29T00:38:50;14.70;99.90
20759;DHT22;10539;53.686;9.158;2022-07-29T00:41:17;14.60;99.90
20759;DHT22;10539;53.686;9.158;2022-07-29T00:43:43;14.60;99.90
20759;DHT22;10539;53.686;9.158;2022-07-29T00:46:09;14.60;99.90
20759;DHT22;10539;53.686;9.158;2022-07-29T00:48:35;14.60;99.90
20759;DHT22;10539;53.686;9.158;2022-07-29T00:51:02;14.50;99.90
20759;DHT22;10539;53.686;9.158;2022-07-29T00:53:29;14.50;99.90
20759;DHT22;10539;53.686;9.158;2022-07-29T00:55:55;14.40;99.90
20759;DHT22;10539;53.686;9.158;2022-07-29T00:58:22;14.40;99.90
20759;DHT22;10539;53.686;9.158;2022-07-29T01:00:48;14.40;99.90
20759;DHT22;10539;53.686;9.158;2022-07-29T01:03:13;14.30;99.90
20759;DHT22;10539;53.686;9.158;2022-07-29T01:05:41;14.30;99.90
20759;DHT22;10539;53.686;9.158;2022-07-29T01:08:08;14.30;99.90
20759;DHT22;10539;53.686;9.158;2022-07-29T01:10:38;14.20;99.90
20759;DHT22;10539;53.686;9.158;2022-07-29T01:13:05;14.30;99.90
20759;DHT22;10539;53.686;9.158;2022-07-29T01:15:34;14.20;99.90
20759;DHT22;10539;53.686;9.158;2022-07-29T01:18:09;14.20;99.90
20759;DHT22;10539;53.686;9.158;2022-07-29T01:29:05;14.00;99.90
20759;DHT22;10539;53.686;9.158;2022-07-29T01:31:48;14.00;99.90
20759;DHT22;10539;53.686;9.158;2022-07-29T01:34:27;14.00;99.90
20759;DHT22;10539;53.686;9.158;2022-07-29T01:39:52;14.00;99.90
20759;DHT22;10539;53.686;9.158;2022-07-29T01:42:45;14.00;99.90
20759;DHT22;10539;53.686;9.158;2022-07-29T01:45:21;14.00;99.90
20759;DHT22;10539;53.686;9.158;2022-07-29T01:53:47;14.00;99.90
20759;DHT22;10539;53.686;9.158;2022-07-29T01:56:18;14.00;99.90
20759;DHT22;10539;53.686;9.158;2022-07-29T01:58:45;14.00;99.90
20759;DHT22;10539;53.686;9.158;2022-07-29T02:01:13;14.00;99.90
20759;DHT22;10539;53.686;9.158;2022-07-29T02:03:43;14.00;99.90
20759;DHT22;10539;53.686;9.158;2022-07-29T02:06:11;14.00;99.90
20759;DHT22;10539;53.686;9.158;2022-07-29T02:08:39;14.00;99.90
20759;DHT22;10539;53.686;9.158;2022-07-29T02:11:07;14.00;99.90
20759;DHT22;10539;53.686;9.158;2022-07-29T02:13:36;14.00;99.90
20759;DHT22;10539;53.686;9.158;2022-07-29T02:16:05;14.00;99.90
20759;DHT22;10539;53.686;9.158;2022-07-29T02:18:33;14.00;99.90
20759;DHT22;10539;53.686;9.158;2022-07-29T02:21:01;14.00;99.90
20759;DHT22;10539;53.686;9.158;2022-07-29T02:23:31;14.00;99.90
20759;DHT22;10539;53.686;9.158;2022-07-29T02:25:59;14.00;99.90
20759;DHT22;10539;53.686;9.158;2022-07-29T02:28:27;14.00;99.90
20759;DHT22;10539;53.686;9.158;2022-07-29T02:30:56;14.00;99.90
20759;DHT22;10539;53.686;9.158;2022-07-29T02:33:24;14.00;99.90
20759;DHT22;10539;53.686;9.158;2022-07-29T02:35:51;14.10;99.90
20759;DHT22;10539;53.686;9.158;2022-07-29T02:38:18;14.10;99.90
20759;DHT22;10539;53.686;9.158;2022-07-29T02:41:09;14.10;99.90
20759;DHT22;10539;53.686;9.158;2022-07-29T02:43:37;14.10;99.90
20759;DHT22;10539;53.686;9.158;2022-07-29T02:46:06;14.10;99.90
20759;DHT22;10539;53.686;9.158;2022-07-29T02:48:44;14.20;99.90
20759;DHT22;10539;53.686;9.158;2022-07-29T02:51:19;14.20;99.90
20759;DHT22;10539;53.686;9.158;2022-07-29T02:53:50;14.10;99.90
20759;DHT22;10539;53.686;9.158;2022-07-29T02:56:19;14.10;99.90
20759;DHT22;10539;53.686;9.158;2022-07-29T02:58:58;14.10;99.90
20759;DHT22;10539;53.686;9.158;2022-07-29T03:01:25;14.10;99.90
20759;DHT22;10539;53.686;9.158;2022-07-29T03:03:55;14.10;99.90
20759;DHT22;10539;53.686;9.158;2022-07-29T03:06:24;14.00;99.90
20759;DHT22;10539;53.686;9.158;2022-07-29T03:08:51;13.90;99.90
20759;DHT22;10539;53.686;9.158;2022-07-29T03:11:17;13.90;99.90
20759;DHT22;10539;53.686;9.158;2022-07-29T03:13:44;13.90;99.90
20759;DHT22;10539;53.686;9.158;2022-07-29T03:16:11;13.90;99.90
20759;DHT22;10539;53.686;9.158;2022-07-29T03:18:38;14.00;99.90
20759;DHT22;10539;53.686;9.158;2022-07-29T03:21:04;14.00;99.90
20759;DHT22;10539;53.686;9.158;2022-07-29T03:23:30;14.00;99.90
20759;DHT22;10539;53.686;9.158;2022-07-29T03:25:56;14.00;99.90
20759;DHT22;10539;53.686;9.158;2022-07-29T03:28:22;14.10;99.90
20759;DHT22;10539;53.686;9.158;2022-07-29T03:30:51;14.10;99.90
20759;DHT22;10539;53.686;9.158;2022-07-29T03:33:16;14.10;99.90
20759;DHT22;10539;53.686;9.158;2022-07-29T03:35:42;14.10;99.90
20759;DHT22;10539;53.686;9.158;2022-07-29T03:38:08;14.10;99.90
20759;DHT22;10539;53.686;9.158;2022-07-29T03:40:38;14.10;99.90
20759;DHT22;10539;53.686;9.158;2022-07-29T03:43:06;14.10;99.90
20759;DHT22;10539;53.686;9.158;2022-07-29T03:45:34;14.10;99.90
20759;DHT22;10539;53.686;9.158;2022-07-29T03:48:05;14.20;99.90
20759;DHT22;10539;53.686;9.158;2022-07-29T03:50:33;14.20;99.90
20759;DHT22;10539;53.686;9.158;2022-07-29T03:53:01;14.20;99.90
20759;DHT22;10539;53.686;9.158;2022-07-29T03:55:28;14.20;99.90
20759;DHT22;10539;53.686;9.158;2022-07-29T03:57:55;14.20;99.90
20759;DHT22;10539;53.686;9.158;2022-07-29T04:00:24;14.20;99.90
20759;DHT22;10539;53.686;9.158;2022-07-29T04:02:49;14.20;99.90
20759;DHT22;10539;53.686;9.158;2022-07-29T04:05:18;14.20;99.90
20759;DHT22;10539;53.686;9.158;2022-07-29T04:07:45;14.20;99.90
20759;DHT22;10539;53.686;9.158;2022-07-29T04:10:11;14.20;99.90
20759;DHT22;10539;53.686;9.158;2022-07-29T04:12:37;14.20;99.90
20759;DHT22;10539;53.686;9.158;2022-07-29T04:15:06;14.20;99.90
20759;DHT22;10539;53.686;9.158;2022-07-29T04:17:31;14.20;99.90
20759;DHT22;10539;53.686;9.158;2022-07-29T04:19:57;14.30;99.90
20759;DHT22;10539;53.686;9.158;2022-07-29T04:22:23;14.30;99.90
20759;DHT22;10539;53.686;9.158;2022-07-29T04:24:48;14.30;99.90
20759;DHT22;10539;53.686;9.158;2022-07-29T04:27:14;14.30;99.90
20759;DHT22;10539;53.686;9.158;2022-07-29T04:29:40;14.40;99.90
20759;DHT22;10539;53.686;9.158;2022-07-29T04:32:05;14.40;99.90
20759;DHT22;10539;53.686;9.158;2022-07-29T04:34:31;14.40;99.90
20759;DHT22;10539;53.686;9.158;2022-07-29T04:36:57;14.40;99.90
20759;DHT22;10539;53.686;9.158;2022-07-29T04:39:23;14.50;99.90
20759;DHT22;10539;53.686;9.158;2022-07-29T04:41:49;14.40;99.90
20759;DHT22;10539;53.686;9.158;2022-07-29T04:44:15;14.50;99.90
20759;DHT22;10539;53.686;9.158;2022-07-29T04:46:41;14.40;99.90
20759;DHT22;10539;53.686;9.158;2022-07-29T04:49:07;14.50;99.90
20759;DHT22;10539;53.686;9.158;2022-07-29T04:51:33;14.50;99.90
20759;DHT22;10539;53.686;9.158;2022-07-29T04:53:59;14.50;99.90
20759;DHT22;10539;53.686;9.158;2022-07-29T04:56:25;14.40;99.90
20759;DHT22;10539;53.686;9.158;2022-07-29T04:58:50;14.50;99.90
20759;DHT22;10539;53.686;9.158;2022-07-29T05:01:16;14.50;99.90
20759;DHT22;10539;53.686;9.158;2022-07-29T05:03:42;14.60;99.90
20759;DHT22;10539;53.686;9.158;2022-07-29T05:06:08;14.60;99.90
20759;DHT22;10539;53.686;9.158;2022-07-29T05:08:33;14.70;99.90
20759;DHT22;10539;53.686;9.158;2022-07-29T05:10:59;14.80;99.90
20759;DHT22;10539;53.686;9.158;2022-07-29T05:13:25;14.80;99.90
20759;DHT22;10539;53.686;9.158;2022-07-29T05:15:50;14.90;99.90
20759;DHT22;10539;53.686;9.158;2022-07-29T05:18:16;14.90;99.90
20759;DHT22;10539;53.686;9.158;2022-07-29T05:20:42;15.00;99.90
20759;DHT22;10539;53.686;9.158;2022-07-29T05:23:07;15.00;99.90
20759;DHT22;10539;53.686;9.158;2022-07-29T05:25:33;15.00;99.90
20759;DHT22;10539;53.686;9.158;2022-07-29T05:27:59;15.00;99.90
20759;DHT22;10539;53.686;9.158;2022-07-29T05:30:25;15.10;99.90
20759;DHT22;10539;53.686;9.158;2022-07-29T05:32:51;15.00;99.90
20759;DHT22;10539;53.686;9.158;2022-07-29T05:35:16;15.00;99.90
20759;DHT22;10539;53.686;9.158;2022-07-29T05:37:42;15.00;99.90
20759;DHT22;10539;53.686;9.158;2022-07-29T05:40:08;15.00;99.90
20759;DHT22;10539;53.686;9.158;2022-07-29T05:42:34;15.10;99.90
20759;DHT22;10539;53.686;9.158;2022-07-29T05:45:00;15.20;99.90
20759;DHT22;10539;53.686;9.158;2022-07-29T05:47:26;15.20;99.90
20759;DHT22;10539;53.686;9.158;2022-07-29T05:49:52;15.30;99.90
20759;DHT22;10539;53.686;9.158;2022-07-29T05:52:20;15.30;99.90
20759;DHT22;10539;53.686;9.158;2022-07-29T05:54:45;15.40;99.90
20759;DHT22;10539;53.686;9.158;2022-07-29T05:57:19;15.40;99.90
20759;DHT22;10539;53.686;9.158;2022-07-29T05:59:45;15.40;99.90
20759;DHT22;10539;53.686;9.158;2022-07-29T06:02:12;15.40;99.90
20759;DHT22;10539;53.686;9.158;2022-07-29T06:04:37;15.40;99.90
20759;DHT22;10539;53.686;9.158;2022-07-29T06:07:03;15.40;99.90
20759;DHT22;10539;53.686;9.158;2022-07-29T06:09:29;15.50;99.90
20759;DHT22;10539;53.686;9.158;2022-07-29T06:11:55;15.50;99.90
20759;DHT22;10539;53.686;9.158;2022-07-29T06:14:21;15.50;99.90
20759;DHT22;10539;53.686;9.158;2022-07-29T06:16:47;15.60;99.90
20759;DHT22;10539;53.686;9.158;2022-07-29T06:19:12;15.60;99.90
20759;DHT22;10539;53.686;9.158;2022-07-29T06:21:42;15.70;99.90
20759;DHT22;10539;53.686;9.158;2022-07-29T06:24:13;15.80;99.90
20759;DHT22;10539;53.686;9.158;2022-07-29T06:26:39;15.90;99.90
20759;DHT22;10539;53.686;9.158;2022-07-29T06:29:06;16.10;99.90
20759;DHT22;10539;53.686;9.158;2022-07-29T06:31:32;16.10;99.90
20759;DHT22;10539;53.686;9.158;2022-07-29T06:33:58;16.20;99.90
20759;DHT22;10539;53.686;9.158;2022-07-29T06:36:23;16.20;99.90
20759;DHT22;10539;53.686;9.158;2022-07-29T06:38:49;16.30;99.90
20759;DHT22;10539;53.686;9.158;2022-07-29T06:41:15;16.30;99.90
20759;DHT22;10539;53.686;9.158;2022-07-29T06:43:43;16.40;99.90
20759;DHT22;10539;53.686;9.158;2022-07-29T06:46:11;16.40;99.90
20759;DHT22;10539;53.686;9.158;2022-07-29T06:48:38;16.40;99.90
20759;DHT22;10539;53.686;9.158;2022-07-29T06:51:05;16.40;99.90
20759;DHT22;10539;53.686;9.158;2022-07-29T06:53:32;16.30;99.90
20759;DHT22;10539;53.686;9.158;2022-07-29T06:55:59;16.40;99.90
20759;DHT22;10539;53.686;9.158;2022-07-29T06:58:26;16.50;99.90
20759;DHT22;10539;53.686;9.158;2022-07-29T07:00:52;16.80;99.90
20759;DHT22;10539;53.686;9.158;2022-07-29T07:03:18;17.20;99.90
20759;DHT22;10539;53.686;9.158;2022-07-29T07:05:44;17.30;99.90
20759;DHT22;10539;53.686;9.158;2022-07-29T07:08:11;17.30;99.90
20759;DHT22;10539;53.686;9.158;2022-07-29T07:10:37;17.40;99.90
20759;DHT22;10539;53.686;9.158;2022-07-29T07:13:03;17.30;99.90
20759;DHT22;10539;53.686;9.158;2022-07-29T07:15:29;17.30;99.90
20759;DHT22;10539;53.686;9.158;2022-07-29T07:17:55;17.30;99.90
20759;DHT22;10539;53.686;9.158;2022-07-29T07:20:21;17.30;99.90
20759;DHT22;10539;53.686;9.158;2022-07-29T07:22:46;17.40;99.90
20759;DHT22;10539;53.686;9.158;2022-07-29T07:25:13;17.40;99.90
20759;DHT22;10539;53.686;9.158;2022-07-29T07:27:39;17.50;99.90
20759;DHT22;10539;53.686;9.158;2022-07-29T07:30:06;17.70;99.90
20759;DHT22;10539;53.686;9.158;2022-07-29T07:32:34;17.90;99.90
20759;DHT22;10539;53.686;9.158;2022-07-29T07:35:00;18.10;99.90
20759;DHT22;10539;53.686;9.158;2022-07-29T07:37:26;18.20;99.90
20759;DHT22;10539;53.686;9.158;2022-07-29T07:39:52;18.40;99.90
20759;DHT22;10539;53.686;9.158;2022-07-29T07:42:19;18.50;99.90
20759;DHT22;10539;53.686;9.158;2022-07-29T07:44:44;18.90;99.90
20759;DHT22;10539;53.686;9.158;2022-07-29T07:47:15;19.20;99.90
20759;DHT22;10539;53.686;9.158;2022-07-29T07:49:45;19.50;99.90
20759;DHT22;10539;53.686;9.158;2022-07-29T07:52:11;19.60;99.90
20759;DHT22;10539;53.686;9.158;2022-07-29T07:54:37;19.50;99.90
20759;DHT22;10539;53.686;9.158;2022-07-29T07:57:03;19.30;99.90
20759;DHT22;10539;53.686;9.158;2022-07-29T07:59:29;19.10;99.90
20759;DHT22;10539;53.686;9.158;2022-07-29T08:01:54;19.00;99.90
20759;DHT22;10539;53.686;9.158;2022-07-29T08:04:20;19.20;99.90
20759;DHT22;10539;53.686;9.158;2022-07-29T08:06:46;19.20;99.90
20759;DHT22;10539;53.686;9.158;2022-07-29T08:09:11;19.30;99.90
20759;DHT22;10539;53.686;9.158;2022-07-29T08:11:37;19.30;99.90
20759;DHT22;10539;53.686;9.158;2022-07-29T08:14:03;19.30;99.90
20759;DHT22;10539;53.686;9.158;2022-07-29T08:16:29;19.30;99.90
20759;DHT22;10539;53.686;9.158;2022-07-29T08:18:54;19.40;99.90
20759;DHT22;10539;53.686;9.158;2022-07-29T08:21:23;19.50;99.90
20759;DHT22;10539;53.686;9.158;2022-07-29T08:23:50;19.60;99.90
20759;DHT22;10539;53.686;9.158;2022-07-29T08:26:18;19.70;99.90
20759;DHT22;10539;53.686;9.158;2022-07-29T08:28:45;19.70;99.90
20759;DHT22;10539;53.686;9.158;2022-07-29T08:31:14;19.80;99.90
20759;DHT22;10539;53.686;9.158;2022-07-29T08:33:40;19.80;99.90
20759;DHT22;10539;53.686;9.158;2022-07-29T08:36:06;19.90;99.90
20759;DHT22;10539;53.686;9.158;2022-07-29T08:38:32;20.00;99.90
20759;DHT22;10539;53.686;9.158;2022-07-29T08:41:00;20.00;99.90
20759;DHT22;10539;53.686;9.158;2022-07-29T08:43:28;20.10;99.90
20759;DHT22;10539;53.686;9.158;2022-07-29T08:45:53;20.10;99.90
20759;DHT22;10539;53.686;9.158;2022-07-29T08:48:21;20.10;99.90
20759;DHT22;10539;53.686;9.158;2022-07-29T08:50:50;20.20;99.90
20759;DHT22;10539;53.686;9.158;2022-07-29T08:53:18;20.20;99.90
20759;DHT22;10539;53.686;9.158;2022-07-29T08:55:46;20.30;99.90
20759;DHT22;10539;53.686;9.158;2022-07-29T08:58:13;20.30;99.90
20759;DHT22;10539;53.686;9.158;2022-07-29T09:00:50;20.40;99.90
20759;DHT22;10539;53.686;9.158;2022-07-29T09:03:18;20.40;99.90
20759;DHT22;10539;53.686;9.158;2022-07-29T09:05:46;20.60;99.90
20759;DHT22;10539;53.686;9.158;2022-07-29T09:08:12;20.70;99.90
20759;DHT22;10539;53.686;9.158;2022-07-29T09:10:39;20.80;99.90
20759;DHT22;10539;53.686;9.158;2022-07-29T09:13:05;20.90;99.90
20759;DHT22;10539;53.686;9.158;2022-07-29T09:15:31;20.90;99.90
20759;DHT22;10539;53.686;9.158;2022-07-29T09:17:57;20.90;99.90
20759;DHT22;10539;53.686;9.158;2022-07-29T09:20:24;21.00;99.90
20759;DHT22;10539;53.686;9.158;2022-07-29T09:22:51;21.00;99.90
20759;DHT22;10539;53.686;9.158;2022-07-29T09:28:14;21.00;99.90
20759;DHT22;10539;53.686;9.158;2022-07-29T09:30:56;20.90;99.90
20759;DHT22;10539;53.686;9.158;2022-07-29T09:33:23;20.80;99.90
20759;DHT22;10539;53.686;9.158;2022-07-29T09:36:06;20.80;99.90
20759;DHT22;10539;53.686;9.158;2022-07-29T09:38:32;20.80;99.90
20759;DHT22;10539;53.686;9.158;2022-07-29T09:41:01;20.80;99.90
20759;DHT22;10539;53.686;9.158;2022-07-29T09:43:27;20.80;99.90
20759;DHT22;10539;53.686;9.158;2022-07-29T09:45:53;20.80;99.90
20759;DHT22;10539;53.686;9.158;2022-07-29T09:48:21;20.80;99.90
20759;DHT22;10539;53.686;9.158;2022-07-29T09:50:47;20.90;99.90
20759;DHT22;10539;53.686;9.158;2022-07-29T09:53:38;20.90;99.90
20759;DHT22;10539;53.686;9.158;2022-07-29T09:56:06;20.90;99.90
20759;DHT22;10539;53.686;9.158;2022-07-29T09:58:32;21.00;99.90
20759;DHT22;10539;53.686;9.158;2022-07-29T10:01:01;21.20;99.90
20759;DHT22;10539;53.686;9.158;2022-07-29T10:03:27;21.40;99.90
20759;DHT22;10539;53.686;9.158;2022-07-29T10:06:09;21.60;99.90
20759;DHT22;10539;53.686;9.158;2022-07-29T10:08:36;21.70;99.90
20759;DHT22;10539;53.686;9.158;2022-07-29T10:11:15;21.70;99.90
20759;DHT22;10539;53.686;9.158;2022-07-29T10:13:42;21.80;99.90
20759;DHT22;10539;53.686;9.158;2022-07-29T10:16:09;22.00;99.90
20759;DHT22;10539;53.686;9.158;2022-07-29T10:18:46;22.10;99.90
20759;DHT22;10539;53.686;9.158;2022-07-29T10:21:14;22.20;99.90
20759;DHT22;10539;53.686;9.158;2022-07-29T10:23:42;22.30;99.90
20759;DHT22;10539;53.686;9.158;2022-07-29T10:26:10;22.30;99.90
20759;DHT22;10539;53.686;9.158;2022-07-29T10:28:37;22.40;99.90
20759;DHT22;10539;53.686;9.158;2022-07-29T10:31:06;22.40;99.90
20759;DHT22;10539;53.686;9.158;2022-07-29T10:33:46;22.50;99.90
20759;DHT22;10539;53.686;9.158;2022-07-29T10:36:50;22.40;99.90
20759;DHT22;10539;53.686;9.158;2022-07-29T10:42:25;22.60;99.90
20759;DHT22;10539;53.686;9.158;2022-07-29T10:44:53;22.80;99.90
20759;DHT22;10539;53.686;9.158;2022-07-29T10:47:24;22.80;99.90
20759;DHT22;10539;53.686;9.158;2022-07-29T10:49:58;22.80;99.90
20759;DHT22;10539;53.686;9.158;2022-07-29T10:52:24;22.90;99.90
20759;DHT22;10539;53.686;9.158;2022-07-29T10:54:53;23.00;99.90
20759;DHT22;10539;53.686;9.158;2022-07-29T10:57:27;23.10;99.90
20759;DHT22;10539;53.686;9.158;2022-07-29T11:05:09;23.10;99.90
20759;DHT22;10539;53.686;9.158;2022-07-29T11:07:36;23.10;99.90
20759;DHT22;10539;53.686;9.158;2022-07-29T11:15:13;23.50;99.90
20759;DHT22;10539;53.686;9.158;2022-07-29T11:20:42;23.70;99.90
20759;DHT22;10539;53.686;9.158;2022-07-29T11:23:28;23.70;99.40
20759;DHT22;10539;53.686;9.158;2022-07-29T11:29:01;24.00;99.90
20759;DHT22;10539;53.686;9.158;2022-07-29T11:34:26;24.30;99.00
20759;DHT22;10539;53.686;9.158;2022-07-29T11:37:14;24.20;97.50
20759;DHT22;10539;53.686;9.158;2022-07-29T11:39:44;24.20;97.10
20759;DHT22;10539;53.686;9.158;2022-07-29T11:47:35;24.50;97.90
20759;DHT22;10539;53.686;9.158;2022-07-29T11:50:09;24.60;97.70
20759;DHT22;10539;53.686;9.158;2022-07-29T11:52:40;24.60;97.40
20759;DHT22;10539;53.686;9.158;2022-07-29T11:55:16;24.50;96.10
20759;DHT22;10539;53.686;9.158;2022-07-29T11:57:58;24.40;95.30
20759;DHT22;10539;53.686;9.158;2022-07-29T12:00:38;24.30;95.80
20759;DHT22;10539;53.686;9.158;2022-07-29T12:03:10;24.30;96.80
20759;DHT22;10539;53.686;9.158;2022-07-29T12:05:43;24.40;96.40
20759;DHT22;10539;53.686;9.158;2022-07-29T12:08:18;24.50;96.10
20759;DHT22;10539;53.686;9.158;2022-07-29T12:10:46;24.60;95.10
20759;DHT22;10539;53.686;9.158;2022-07-29T12:13:13;24.40;94.70
20759;DHT22;10539;53.686;9.158;2022-07-29T12:15:40;24.30;95.20
20759;DHT22;10539;53.686;9.158;2022-07-29T12:18:24;24.40;95.50
20759;DHT22;10539;53.686;9.158;2022-07-29T12:21:01;24.50;95.20
20759;DHT22;10539;53.686;9.158;2022-07-29T12:23:31;24.60;94.20
20759;DHT22;10539;53.686;9.158;2022-07-29T12:25:58;24.60;94.70
20759;DHT22;10539;53.686;9.158;2022-07-29T12:28:24;24.70;94.30
20759;DHT22;10539;53.686;9.158;2022-07-29T12:30:51;24.80;93.30
20759;DHT22;10539;53.686;9.158;2022-07-29T12:33:19;24.90;94.10
20759;DHT22;10539;53.686;9.158;2022-07-29T12:35:48;25.00;94.00
20759;DHT22;10539;53.686;9.158;2022-07-29T12:38:15;25.10;92.10
20759;DHT22;10539;53.686;9.158;2022-07-29T12:40:41;25.00;91.40
20759;DHT22;10539;53.686;9.158;2022-07-29T12:45:37;25.30;92.30
20759;DHT22;10539;53.686;9.158;2022-07-29T12:48:03;25.40;93.30
20759;DHT22;10539;53.686;9.158;2022-07-29T12:50:29;25.60;91.20
20759;DHT22;10539;53.686;9.158;2022-07-29T12:53:11;25.70;92.00
20759;DHT22;10539;53.686;9.158;2022-07-29T12:55:46;25.70;91.10
20759;DHT22;10539;53.686;9.158;2022-07-29T12:58:31;25.70;90.00
20759;DHT22;10539;53.686;9.158;2022-07-29T13:01:23;25.80;90.60
20759;DHT22;10539;53.686;9.158;2022-07-29T13:03:57;25.90;90.20
20759;DHT22;10539;53.686;9.158;2022-07-29T13:06:40;25.90;89.30
20759;DHT22;10539;53.686;9.158;2022-07-29T13:09:20;25.90;88.70
20759;DHT22;10539;53.686;9.158;2022-07-29T13:11:50;25.90;89.00
20759;DHT22;10539;53.686;9.158;2022-07-29T13:14:36;25.90;89.40
20759;DHT22;10539;53.686;9.158;2022-07-29T13:17:05;26.10;88.50
20759;DHT22;10539;53.686;9.158;2022-07-29T13:19:41;26.20;88.10
20759;DHT22;10539;53.686;9.158;2022-07-29T13:22:14;26.20;87.50
20759;DHT22;10539;53.686;9.158;2022-07-29T13:27:24;26.30;86.30
20759;DHT22;10539;53.686;9.158;2022-07-29T13:29:50;26.20;87.00
20759;DHT22;10539;53.686;9.158;2022-07-29T13:32:22;26.10;86.60
20759;DHT22;10539;53.686;9.158;2022-07-29T13:34:48;26.20;87.50
20759;DHT22;10539;53.686;9.158;2022-07-29T13:37:14;26.30;86.50
20759;DHT22;10539;53.686;9.158;2022-07-29T13:39:40;26.30;86.50
20759;DHT22;10539;53.686;9.158;2022-07-29T13:42:06;26.30;85.80
20759;DHT22;10539;53.686;9.158;2022-07-29T13:44:32;26.30;86.10
20759;DHT22;10539;53.686;9.158;2022-07-29T13:46:58;26.30;85.50
20759;DHT22;10539;53.686;9.158;2022-07-29T13:49:25;26.30;84.90
20759;DHT22;10539;53.686;9.158;2022-07-29T13:51:50;26.20;85.40
20759;DHT22;10539;53.686;9.158;2022-07-29T13:54:16;26.30;86.10
20759;DHT22;10539;53.686;9.158;2022-07-29T13:56:42;26.40;86.70
20759;DHT22;10539;53.686;9.158;2022-07-29T13:59:08;26.40;86.70
20759;DHT22;10539;53.686;9.158;2022-07-29T14:01:34;26.50;85.70
20759;DHT22;10539;53.686;9.158;2022-07-29T14:04:00;26.50;85.40
20759;DHT22;10539;53.686;9.158;2022-07-29T14:06:26;26.50;85.70
20759;DHT22;10539;53.686;9.158;2022-07-29T14:08:52;26.40;84.50
20759;DHT22;10539;53.686;9.158;2022-07-29T14:11:18;26.30;85.30
20759;DHT22;10539;53.686;9.158;2022-07-29T14:13:44;26.20;85.40
20759;DHT22;10539;53.686;9.158;2022-07-29T14:16:09;26.30;84.20
20759;DHT22;10539;53.686;9.158;2022-07-29T14:18:35;26.40;84.50
20759;DHT22;10539;53.686;9.158;2022-07-29T14:21:01;26.30;84.90
20759;DHT22;10539;53.686;9.158;2022-07-29T14:23:27;26.30;85.70
20759;DHT22;10539;53.686;9.158;2022-07-29T14:25:52;26.20;85.00
20759;DHT22;10539;53.686;9.158;2022-07-29T14:28:18;26.20;84.20
20759;DHT22;10539;53.686;9.158;2022-07-29T14:30:44;26.20;85.00
20759;DHT22;10539;53.686;9.158;2022-07-29T14:33:10;26.10;85.60
20759;DHT22;10539;53.686;9.158;2022-07-29T14:35:35;26.10;85.60
20759;DHT22;10539;53.686;9.158;2022-07-29T14:38:01;26.00;85.80
20759;DHT22;10539;53.686;9.158;2022-07-29T14:40:27;26.00;86.80
20759;DHT22;10539;53.686;9.158;2022-07-29T14:42:52;26.10;87.20
20759;DHT22;10539;53.686;9.158;2022-07-29T14:45:18;26.20;87.30
20759;DHT22;10539;53.686;9.158;2022-07-29T14:47:44;26.20;87.90
20759;DHT22;10539;53.686;9.158;2022-07-29T14:50:09;26.30;87.90
20759;DHT22;10539;53.686;9.158;2022-07-29T14:52:35;26.30;87.70
20759;DHT22;10539;53.686;9.158;2022-07-29T14:55:01;26.30;88.00
20759;DHT22;10539;53.686;9.158;2022-07-29T14:57:27;26.20;87.90
20759;DHT22;10539;53.686;9.158;2022-07-29T14:59:54;26.30;86.90
20759;DHT22;10539;53.686;9.158;2022-07-29T15:02:19;26.30;88.20
20759;DHT22;10539;53.686;9.158;2022-07-29T15:04:45;26.40;89.30
20759;DHT22;10539;53.686;9.158;2022-07-29T15:07:13;26.40;88.60
20759;DHT22;10539;53.686;9.158;2022-07-29T15:09:39;26.40;88.90
20759;DHT22;10539;53.686;9.158;2022-07-29T15:12:06;26.30;89.10
20759;DHT22;10539;53.686;9.158;2022-07-29T15:14:32;26.20;89.20
20759;DHT22;10539;53.686;9.158;2022-07-29T15:16:58;26.20;89.20
20759;DHT22;10539;53.686;9.158;2022-07-29T15:19:23;26.20;89.70
20759;DHT22;10539;53.686;9.158;2022-07-29T15:21:49;26.10;89.40
20759;DHT22;10539;53.686;9.158;2022-07-29T15:24:18;26.00;88.80
20759;DHT22;10539;53.686;9.158;2022-07-29T15:26:45;26.00;89.10
20759;DHT22;10539;53.686;9.158;2022-07-29T15:29:10;25.90;89.60
20759;DHT22;10539;53.686;9.158;2022-07-29T15:31:36;25.90;89.80
20759;DHT22;10539;53.686;9.158;2022-07-29T15:34:02;25.90;90.50
20759;DHT22;10539;53.686;9.158;2022-07-29T15:36:27;25.90;90.40
20759;DHT22;10539;53.686;9.158;2022-07-29T15:38:53;25.90;89.50
20759;DHT22;10539;53.686;9.158;2022-07-29T15:41:19;25.90;89.80
20759;DHT22;10539;53.686;9.158;2022-07-29T15:43:46;25.90;89.90
20759;DHT22;10539;53.686;9.158;2022-07-29T15:46:14;25.90;90.60
20759;DHT22;10539;53.686;9.158;2022-07-29T15:48:58;25.90;91.20
20759;DHT22;10539;53.686;9.158;2022-07-29T15:51:24;25.90;90.90
20759;DHT22;10539;53.686;9.158;2022-07-29T15:53:50;25.80;91.00
20759;DHT22;10539;53.686;9.158;2022-07-29T15:56:16;25.70;90.90
20759;DHT22;10539;53.686;9.158;2022-07-29T15:58:42;25.60;91.00
20759;DHT22;10539;53.686;9.158;2022-07-29T16:01:08;25.60;91.60
20759;DHT22;10539;53.686;9.158;2022-07-29T16:03:33;25.60;91.70
20759;DHT22;10539;53.686;9.158;2022-07-29T16:05:59;25.70;92.20
20759;DHT22;10539;53.686;9.158;2022-07-29T16:08:25;25.80;92.80
20759;DHT22;10539;53.686;9.158;2022-07-29T16:10:51;25.80;92.40
20759;DHT22;10539;53.686;9.158;2022-07-29T16:13:16;25.80;91.50
20759;DHT22;10539;53.686;9.158;2022-07-29T16:15:42;25.80;91.90
20759;DHT22;10539;53.686;9.158;2022-07-29T16:18:08;25.80;91.70
20759;DHT22;10539;53.686;9.158;2022-07-29T16:20:35;25.80;92.30
20759;DHT22;10539;53.686;9.158;2022-07-29T16:23:01;25.80;92.10
20759;DHT22;10539;53.686;9.158;2022-07-29T16:25:27;25.80;92.10
20759;DHT22;10539;53.686;9.158;2022-07-29T16:27:52;25.60;92.20
20759;DHT22;10539;53.686;9.158;2022-07-29T16:30:18;25.60;92.80